Time;durP1;ratioP1;P1;durP2;ratioP2;P2;SDS_P1;SDS_P2;PMS_P1;PMS_P2;Temp;Humidity;BMP_temperature;BMP_pressure;BME280_temperature;BME280_humidity;BME280_pressure;Samples;Min_cycle;Max_cycle;Signal;HPM_P1;HPM_P2
2024/01/24 00:00:46;;;;;;;2.87;2.67;;;8.90;1.00;;;;;;5057357;28;20447;-77
2024/01/24 00:03:14;;;;;;;5.73;2.90;;;9.00;1.00;;;;;;5059051;28;20443;-78
2024/01/24 00:05:45;;;;;;;3.10;2.80;;;9.00;1.00;;;;;;5048995;28;20464;-79
2024/01/24 00:08:13;;;;;;;3.73;3.43;;;9.00;1.00;;;;;;5048615;28;20468;-79
2024/01/24 00:10:41;;;;;;;8.00;2.67;;;9.00;1.00;;;;;;5054059;28;20448;-79
2024/01/24 00:13:10;;;;;;;3.40;3.20;;;9.00;1.00;;;;;;5049532;28;20984;-80
2024/01/24 00:15:38;;;;;;;3.03;2.70;;;9.00;1.00;;;;;;5049523;28;20455;-81
2024/01/24 00:18:06;;;;;;;2.80;2.60;;;9.10;1.00;;;;;;5044221;28;20484;-77
2024/01/24 00:20:35;;;;;;;3.37;3.13;;;9.10;1.00;;;;;;5047420;28;21099;-78
2024/01/24 00:23:05;;;;;;;3.30;2.90;;;9.10;1.00;;;;;;5044190;28;20460;-78
2024/01/24 00:25:33;;;;;;;2.60;2.50;;;9.10;1.00;;;;;;5056285;28;20456;-75
2024/01/24 00:28:01;;;;;;;3.00;2.80;;;9.10;1.00;;;;;;5049300;28;20547;-75
2024/01/24 00:30:29;;;;;;;3.27;2.90;;;9.10;1.00;;;;;;5045087;28;20444;-76
2024/01/24 00:32:57;;;;;;;2.90;2.80;;;9.20;1.00;;;;;;5053572;28;20452;-75
2024/01/24 00:35:25;;;;;;;2.63;2.53;;;9.20;1.00;;;;;;5051744;28;20514;-77
2024/01/24 00:37:53;;;;;;;5.50;3.33;;;9.20;1.00;;;;;;5047925;28;20494;-77
2024/01/24 00:40:23;;;;;;;2.90;2.80;;;9.30;1.00;;;;;;5051898;28;20455;-78
2024/01/24 00:42:51;;;;;;;2.77;2.67;;;9.20;1.00;;;;;;5053431;28;20462;-81
2024/01/24 00:45:19;;;;;;;2.97;2.77;;;9.30;1.00;;;;;;5041477;28;20496;-77
2024/01/24 00:47:49;;;;;;;2.70;2.60;;;9.30;1.00;;;;;;5042506;28;20515;-77
2024/01/24 00:50:17;;;;;;;3.50;3.20;;;9.30;1.00;;;;;;5048433;28;20456;-76
2024/01/24 00:52:51;;;;;;;3.53;3.27;;;9.30;1.00;;;;;;5040753;28;20455;-78
2024/01/24 00:55:19;;;;;;;2.93;2.73;;;9.30;1.00;;;;;;5046368;28;20479;-78
2024/01/24 00:57:49;;;;;;;3.50;3.30;;;9.40;1.00;;;;;;5045444;28;20488;-78
2024/01/24 01:00:18;;;;;;;3.30;3.00;;;9.30;1.00;;;;;;5042679;28;20477;-78
2024/01/24 01:02:46;;;;;;;3.00;2.90;;;9.40;1.00;;;;;;5051063;28;20459;-78
2024/01/24 01:05:14;;;;;;;3.70;3.40;;;9.40;1.00;;;;;;5054853;28;20452;-76
2024/01/24 01:07:43;;;;;;;3.30;3.07;;;9.40;1.00;;;;;;5043938;28;20530;-79
2024/01/24 01:10:11;;;;;;;3.23;3.03;;;9.40;1.00;;;;;;5038348;28;20472;-76
2024/01/24 01:12:39;;;;;;;3.43;3.20;;;9.50;1.00;;;;;;5040036;28;20447;-80
2024/01/24 01:15:09;;;;;;;4.90;3.33;;;9.40;1.00;;;;;;5050609;28;20458;-77
2024/01/24 01:17:38;;;;;;;3.30;3.10;;;9.50;1.00;;;;;;5053599;28;20463;-77
2024/01/24 01:20:09;;;;;;;3.30;3.20;;;9.50;1.00;;;;;;5046138;28;20475;-76
2024/01/24 01:22:37;;;;;;;3.27;3.17;;;9.50;1.00;;;;;;5042075;28;20554;-75
2024/01/24 01:25:06;;;;;;;3.67;3.37;;;9.50;1.00;;;;;;5040894;28;20454;-79
2024/01/24 01:27:34;;;;;;;3.50;3.20;;;9.60;1.00;;;;;;5042244;28;20452;-78
2024/01/24 01:30:02;;;;;;;3.40;3.20;;;9.50;1.00;;;;;;5040780;28;20479;-76
2024/01/24 01:32:32;;;;;;;3.47;3.30;;;9.50;1.00;;;;;;5044246;28;20452;-78
2024/01/24 01:35:00;;;;;;;3.60;3.40;;;9.50;1.00;;;;;;5054897;28;20462;-82
2024/01/24 01:37:28;;;;;;;3.57;3.40;;;9.50;1.00;;;;;;5051950;28;20464;-78
2024/01/24 01:39:56;;;;;;;3.90;3.60;;;9.60;1.00;;;;;;5053104;28;20958;-76
2024/01/24 01:42:25;;;;;;;3.07;2.87;;;9.60;1.00;;;;;;5057160;28;21187;-78
2024/01/24 01:44:53;;;;;;;3.47;3.37;;;9.60;1.00;;;;;;5056287;28;20550;-78
2024/01/24 01:47:21;;;;;;;3.53;3.33;;;9.60;1.00;;;;;;5052326;28;20445;-78
2024/01/24 01:49:52;;;;;;;3.87;3.57;;;9.60;1.00;;;;;;5053668;28;20527;-79
2024/01/24 01:52:22;;;;;;;3.40;3.23;;;9.70;1.00;;;;;;5053344;28;20459;-78
2024/01/24 01:54:51;;;;;;;3.73;3.43;;;9.70;1.00;;;;;;5055864;28;20462;-79
2024/01/24 01:57:20;;;;;;;3.20;3.00;;;9.60;1.00;;;;;;5053502;28;20452;-76
2024/01/24 01:59:48;;;;;;;3.47;3.27;;;9.60;1.00;;;;;;5052609;28;20572;-79
2024/01/24 02:02:16;;;;;;;3.40;3.23;;;9.70;1.00;;;;;;5052803;28;20448;-77
2024/01/24 02:04:45;;;;;;;6.20;3.20;;;9.70;1.00;;;;;;5053248;28;20443;-79
2024/01/24 02:07:15;;;;;;;3.10;2.83;;;9.70;1.00;;;;;;5049190;28;20547;-79
2024/01/24 02:09:44;;;;;;;3.27;2.90;;;9.70;1.00;;;;;;5042987;28;20479;-82
2024/01/24 02:12:12;;;;;;;3.50;3.20;;;9.70;1.00;;;;;;5049246;28;20527;-78
2024/01/24 02:14:41;;;;;;;3.30;3.20;;;9.70;1.00;;;;;;5042482;28;20498;-79
2024/01/24 02:17:09;;;;;;;3.60;3.47;;;9.70;1.00;;;;;;5040825;28;20811;-83
2024/01/24 02:19:38;;;;;;;3.87;3.30;;;9.70;1.00;;;;;;5046008;28;20579;-78
2024/01/24 02:22:06;;;;;;;6.70;3.13;;;9.70;1.00;;;;;;5045882;28;20502;-78
2024/01/24 02:24:36;;;;;;;3.00;2.90;;;9.70;1.00;;;;;;5054717;28;20480;-79
2024/01/24 02:27:05;;;;;;;3.20;3.00;;;9.70;1.00;;;;;;5056760;28;21024;-78
2024/01/24 02:29:33;;;;;;;3.70;3.40;;;9.70;1.00;;;;;;5049136;28;20469;-81
2024/01/24 02:32:01;;;;;;;3.63;3.30;;;9.70;1.00;;;;;;5038768;28;20451;-79
2024/01/24 02:34:29;;;;;;;3.20;3.00;;;9.60;1.00;;;;;;5047918;28;20459;-79
2024/01/24 02:36:58;;;;;;;3.30;3.10;;;9.60;1.00;;;;;;5054317;28;20463;-81
2024/01/24 02:39:26;;;;;;;3.20;2.90;;;9.70;1.00;;;;;;5057878;28;20480;-81
2024/01/24 02:41:56;;;;;;;3.30;3.10;;;9.70;1.00;;;;;;5053133;28;20474;-81
2024/01/24 02:44:24;;;;;;;3.70;3.50;;;9.70;1.00;;;;;;5052755;28;20454;-75
2024/01/24 02:46:52;;;;;;;3.40;3.30;;;9.70;1.00;;;;;;5054102;28;20455;-78
2024/01/24 02:49:20;;;;;;;3.70;3.40;;;9.70;1.00;;;;;;5042880;28;20477;-80
2024/01/24 02:51:48;;;;;;;9.77;3.50;;;9.70;1.00;;;;;;5042486;28;21005;-77
2024/01/24 02:54:17;;;;;;;3.07;2.97;;;9.70;1.00;;;;;;5045936;28;20460;-76
2024/01/24 02:56:45;;;;;;;3.70;3.50;;;9.80;1.00;;;;;;5039670;28;20457;-76
2024/01/24 02:59:15;;;;;;;4.13;3.93;;;9.80;1.00;;;;;;5038640;28;20483;-78
2024/01/24 03:01:43;;;;;;;4.23;3.93;;;9.80;1.00;;;;;;5035257;28;20471;-79
2024/01/24 03:04:11;;;;;;;3.80;3.50;;;9.70;1.00;;;;;;5041296;28;20459;-77
2024/01/24 03:06:41;;;;;;;4.57;3.40;;;9.70;1.00;;;;;;5048536;28;20468;-76
2024/01/24 03:09:10;;;;;;;4.87;3.90;;;9.70;1.00;;;;;;5034388;28;20469;-76
2024/01/24 03:11:38;;;;;;;4.20;3.90;;;9.70;30.70;;;;;;5043809;28;20466;-78
2024/01/24 03:14:06;;;;;;;4.00;3.90;;;9.70;53.60;;;;;;5044257;28;20455;-77
2024/01/24 03:16:36;;;;;;;4.43;3.63;;;9.80;22.50;;;;;;5031672;28;20463;-78
2024/01/24 03:19:07;;;;;;;3.93;3.63;;;9.70;20.00;;;;;;5035165;28;20489;-80
2024/01/24 03:21:35;;;;;;;3.67;3.57;;;9.70;80.90;;;;;;5038100;28;20464;-79
2024/01/24 03:24:03;;;;;;;4.03;3.87;;;9.70;99.90;;;;;;5039094;28;20463;-80
2024/01/24 03:26:31;;;;;;;3.90;3.50;;;9.80;99.90;;;;;;5042229;28;20463;-80
2024/01/24 03:28:59;;;;;;;3.50;3.40;;;9.80;99.90;;;;;;5041476;28;20467;-79
2024/01/24 03:31:28;;;;;;;4.47;4.17;;;9.80;99.90;;;;;;5046021;28;20489;-80
2024/01/24 03:33:57;;;;;;;3.90;3.70;;;9.80;99.90;;;;;;5048699;28;20447;-78
2024/01/24 03:36:26;;;;;;;3.77;3.67;;;9.90;99.90;;;;;;5046565;28;20480;-80
2024/01/24 03:38:54;;;;;;;6.10;3.80;;;9.80;99.90;;;;;;5037400;28;20480;-79
2024/01/24 03:41:22;;;;;;;4.00;3.80;;;9.80;99.90;;;;;;5038596;28;20561;-78
2024/01/24 03:43:50;;;;;;;3.73;3.60;;;9.80;99.90;;;;;;5042840;28;20460;-80
2024/01/24 03:46:19;;;;;;;4.40;4.00;;;9.90;99.90;;;;;;5040896;28;20471;-76
2024/01/24 03:48:48;;;;;;;5.60;3.70;;;9.90;99.90;;;;;;5039162;28;20483;-79
2024/01/24 03:51:17;;;;;;;4.20;4.00;;;9.90;99.90;;;;;;5040416;28;20606;-77
2024/01/24 03:53:46;;;;;;;4.03;3.93;;;10.00;99.90;;;;;;5041535;28;20471;-77
2024/01/24 03:56:14;;;;;;;4.30;4.10;;;10.00;99.90;;;;;;5037136;28;20453;-79
2024/01/24 03:58:42;;;;;;;4.70;4.50;;;10.00;1.00;;;;;;5046297;28;20506;-75
2024/01/24 04:01:11;;;;;;;4.97;4.47;;;10.00;1.00;;;;;;5046753;28;20856;-77
2024/01/24 04:03:39;;;;;;;4.97;4.70;;;10.00;1.00;;;;;;5046111;28;20450;-77
2024/01/24 04:06:07;;;;;;;4.77;4.60;;;10.00;1.00;;;;;;5038723;28;20463;-76
2024/01/24 04:08:37;;;;;;;4.93;4.80;;;10.00;1.00;;;;;;5038173;28;20548;-77
2024/01/24 04:11:05;;;;;;;5.10;4.80;;;10.10;1.00;;;;;;5049243;28;20583;-77
2024/01/24 04:13:34;;;;;;;5.23;4.93;;;10.10;1.00;;;;;;5042788;28;20451;-80
2024/01/24 04:16:02;;;;;;;5.00;4.80;;;10.10;1.00;;;;;;5040004;28;20459;-76
2024/01/24 04:18:30;;;;;;;5.73;5.47;;;10.10;1.00;;;;;;5042909;28;20483;-76
2024/01/24 04:20:58;;;;;;;5.33;5.23;;;10.10;1.00;;;;;;5041468;28;20511;-75
2024/01/24 04:23:27;;;;;;;5.00;4.90;;;10.20;1.00;;;;;;5047920;28;20459;-77
2024/01/24 04:25:56;;;;;;;5.63;5.40;;;10.20;1.00;;;;;;5054376;28;20455;-76
2024/01/24 04:28:24;;;;;;;5.33;5.07;;;10.20;1.00;;;;;;5044110;28;20487;-77
2024/01/24 04:30:53;;;;;;;5.80;5.30;;;10.20;1.00;;;;;;5048431;28;20546;-78
2024/01/24 04:33:21;;;;;;;5.90;5.33;;;10.20;1.00;;;;;;5052228;28;20504;-77
2024/01/24 04:35:49;;;;;;;5.53;5.23;;;10.20;43.40;;;;;;5055135;28;20526;-78
2024/01/24 04:38:17;;;;;;;6.00;5.70;;;10.20;3.50;;;;;;5051403;28;21543;-77
2024/01/24 04:40:45;;;;;;;6.07;5.77;;;10.20;41.70;;;;;;5054484;28;20464;-78
2024/01/24 04:43:15;;;;;;;5.90;5.50;;;10.20;99.90;;;;;;5048380;28;20484;-78
2024/01/24 04:45:43;;;;;;;5.80;5.50;;;10.20;99.90;;;;;;5042361;28;20452;-78
2024/01/24 04:48:11;;;;;;;5.97;5.77;;;10.20;99.90;;;;;;5040631;28;20461;-79
2024/01/24 04:50:40;;;;;;;5.87;5.57;;;10.20;99.90;;;;;;5042225;28;20515;-81
2024/01/24 04:53:08;;;;;;;5.70;5.50;;;10.20;99.90;;;;;;5040729;28;21653;-78
2024/01/24 04:55:36;;;;;;;6.80;6.20;;;10.20;99.90;;;;;;5049838;28;20876;-79
2024/01/24 04:58:05;;;;;;;6.37;6.07;;;10.30;1.00;;;;;;5044581;28;20499;-77
2024/01/24 05:00:35;;;;;;;6.57;6.33;;;10.30;1.00;;;;;;5041757;28;21071;-78
2024/01/24 05:03:03;;;;;;;8.70;6.50;;;10.30;99.90;;;;;;5044936;28;20831;-79
2024/01/24 05:05:31;;;;;;;6.43;6.13;;;10.30;99.90;;;;;;5047514;28;20455;-78
2024/01/24 05:08:00;;;;;;;6.30;5.80;;;10.30;1.00;;;;;;5052385;28;20935;-77
2024/01/24 05:10:28;;;;;;;6.30;6.10;;;10.30;1.00;;;;;;5047448;28;20456;-79
2024/01/24 05:12:57;;;;;;;6.27;6.07;;;10.30;1.00;;;;;;5043988;28;20457;-79
2024/01/24 05:15:25;;;;;;;6.47;6.27;;;10.30;1.00;;;;;;5046174;28;20455;-80
2024/01/24 05:17:55;;;;;;;6.30;6.00;;;10.40;1.00;;;;;;5056487;28;20538;-81
2024/01/24 05:20:23;;;;;;;6.03;5.93;;;10.40;1.00;;;;;;5052122;28;20481;-81
2024/01/24 05:22:51;;;;;;;7.13;6.87;;;10.40;1.00;;;;;;5042887;28;20454;-80
2024/01/24 05:25:19;;;;;;;6.90;6.60;;;10.40;97.60;;;;;;5043672;28;20464;-78
2024/01/24 05:27:48;;;;;;;7.97;7.57;;;10.40;99.90;;;;;;5041623;28;21166;-78
2024/01/24 05:30:16;;;;;;;6.60;6.20;;;10.40;65.70;;;;;;5037703;28;20855;-78
2024/01/24 05:33:03;;;;;;;7.60;7.10;;;10.40;99.90;;;;;;5039821;28;20565;-78
2024/01/24 05:35:32;;;;;;;6.70;6.50;;;10.40;99.90;;;;;;5052215;28;20476;-80
2024/01/24 05:38:01;;;;;;;6.67;6.10;;;10.40;99.90;;;;;;5053065;28;21156;-78
2024/01/24 05:40:29;;;;;;;6.67;6.53;;;10.50;1.00;;;;;;5051337;28;20559;-78
2024/01/24 05:42:58;;;;;;;6.60;6.40;;;10.40;1.00;;;;;;5048695;28;20496;-80
2024/01/24 05:45:26;;;;;;;7.33;7.03;;;10.40;1.00;;;;;;5048933;28;20497;-78
2024/01/24 05:47:55;;;;;;;7.10;6.80;;;10.40;1.00;;;;;;5042998;28;20518;-78
2024/01/24 05:50:25;;;;;;;7.03;6.70;;;10.40;99.90;;;;;;5049078;28;20447;-78
2024/01/24 05:52:53;;;;;;;7.43;7.20;;;10.40;99.90;;;;;;5047040;28;20551;-78
2024/01/24 05:55:21;;;;;;;7.47;7.03;;;10.50;99.90;;;;;;5051228;28;20504;-79
2024/01/24 05:57:50;;;;;;;7.23;7.13;;;10.50;99.90;;;;;;5044889;28;20953;-75
2024/01/24 06:00:19;;;;;;;7.10;7.00;;;10.50;1.00;;;;;;5054568;28;20480;-77
2024/01/24 06:02:48;;;;;;;8.03;7.73;;;10.60;1.00;;;;;;5045358;28;20500;-78
2024/01/24 06:05:16;;;;;;;8.03;7.70;;;10.60;66.50;;;;;;5044815;28;20455;-75
2024/01/24 06:07:49;;;;;;;7.93;7.63;;;10.60;99.90;;;;;;5038031;28;21048;-77
2024/01/24 06:10:17;;;;;;;8.53;7.93;;;10.60;1.00;;;;;;5050897;28;20476;-79
2024/01/24 06:12:45;;;;;;;8.27;7.90;;;10.60;99.90;;;;;;5041181;28;20448;-78
2024/01/24 06:15:13;;;;;;;8.10;7.80;;;10.60;99.90;;;;;;5041522;28;20937;-76
2024/01/24 06:17:42;;;;;;;7.87;7.57;;;10.60;1.00;;;;;;5054680;28;20452;-78
2024/01/24 06:20:12;;;;;;;8.20;7.90;;;10.70;1.00;;;;;;5044564;28;20487;-79
2024/01/24 06:22:40;;;;;;;7.83;7.63;;;10.70;31.00;;;;;;5052127;28;20459;-75
2024/01/24 06:25:10;;;;;;;9.00;8.70;;;10.70;99.90;;;;;;5055925;28;20455;-76
2024/01/24 06:27:39;;;;;;;8.17;7.77;;;10.70;38.40;;;;;;5051499;28;20463;-78
2024/01/24 06:30:08;;;;;;;8.53;8.07;;;10.70;99.90;;;;;;5045394;28;20483;-76
2024/01/24 06:32:51;;;;;;;7.80;7.60;;;10.80;99.90;;;;;;5052988;28;21126;-76
2024/01/24 06:35:20;;;;;;;8.67;8.23;;;10.80;99.90;;;;;;5051570;28;20873;-76
2024/01/24 06:37:50;;;;;;;7.87;7.77;;;10.80;99.90;;;;;;5053647;28;20456;-79
2024/01/24 06:40:19;;;;;;;8.40;8.20;;;10.80;1.00;;;;;;5054624;28;20587;-75
2024/01/24 06:42:48;;;;;;;8.03;7.83;;;10.90;1.00;;;;;;5052104;28;20519;-79
2024/01/24 06:45:16;;;;;;;8.30;8.00;;;10.80;99.90;;;;;;5046515;28;20545;-78
2024/01/24 06:47:45;;;;;;;8.90;8.60;;;10.80;1.00;;;;;;5045250;28;20483;-80
2024/01/24 06:50:14;;;;;;;9.90;9.50;;;10.80;1.00;;;;;;5040582;28;20819;-80
2024/01/24 06:52:42;;;;;;;8.77;8.33;;;10.90;1.00;;;;;;5040339;28;20460;-77
2024/01/24 06:55:11;;;;;;;8.60;8.30;;;10.80;27.40;;;;;;5053516;28;20463;-76
2024/01/24 06:57:41;;;;;;;8.70;8.40;;;10.90;30.50;;;;;;5056507;28;20541;-77
2024/01/24 07:00:10;;;;;;;8.70;8.43;;;10.90;1.00;;;;;;5052336;28;20490;-77
2024/01/24 07:02:38;;;;;;;8.80;8.60;;;10.80;77.70;;;;;;5053922;28;20484;-78
2024/01/24 07:05:08;;;;;;;8.53;8.33;;;10.90;1.00;;;;;;5055078;28;20452;-76
2024/01/24 07:07:38;;;;;;;8.90;8.50;;;10.80;99.90;;;;;;5055608;28;20463;-78
2024/01/24 07:10:10;;;;;;;9.30;8.83;;;10.90;28.00;;;;;;5049903;28;20555;-77
2024/01/24 07:12:45;;;;;;;9.00;8.80;;;10.90;99.90;;;;;;5053664;28;20500;-78
2024/01/24 07:15:15;;;;;;;9.27;9.07;;;10.90;1.00;;;;;;5061012;28;20548;-79
2024/01/24 07:17:44;;;;;;;9.03;8.83;;;10.90;99.90;;;;;;5055105;28;20465;-77
2024/01/24 07:20:13;;;;;;;9.60;9.33;;;10.90;1.00;;;;;;5052213;28;20517;-76
2024/01/24 07:22:41;;;;;;;9.27;9.07;;;10.90;99.90;;;;;;5057043;28;20472;-79
2024/01/24 07:25:10;;;;;;;8.70;8.50;;;10.90;99.90;;;;;;5055483;28;20961;-77
2024/01/24 07:27:38;;;;;;;9.20;9.00;;;10.90;92.10;;;;;;5055019;28;20459;-79
2024/01/24 07:30:09;;;;;;;9.43;9.13;;;11.00;25.30;;;;;;5053423;28;20603;-80
2024/01/24 07:32:39;;;;;;;10.07;9.57;;;11.00;49.00;;;;;;5053203;28;20455;-78
2024/01/24 07:35:09;;;;;;;9.70;9.50;;;11.00;99.90;;;;;;5050022;28;20503;-75
2024/01/24 07:37:37;;;;;;;10.10;9.50;;;11.00;99.90;;;;;;5047627;28;20448;-80
2024/01/24 07:40:07;;;;;;;10.00;9.70;;;11.00;99.90;;;;;;5041225;28;20475;-78
2024/01/24 07:42:35;;;;;;;10.17;9.87;;;11.00;99.90;;;;;;5043483;28;21104;-80
2024/01/24 07:45:04;;;;;;;10.50;9.57;;;11.00;99.90;;;;;;5037720;28;20448;-80
2024/01/24 07:47:34;;;;;;;9.40;9.20;;;11.10;99.90;;;;;;5043649;28;20466;-78
2024/01/24 07:50:05;;;;;;;9.77;9.57;;;11.10;99.90;;;;;;5041041;28;20474;-76
2024/01/24 07:52:34;;;;;;;9.60;9.30;;;11.10;99.90;;;;;;5049937;28;20480;-79
2024/01/24 07:55:10;;;;;;;9.70;9.50;;;11.10;17.00;;;;;;5046186;28;20524;-80
2024/01/24 07:57:40;;;;;;;10.20;10.00;;;11.10;1.00;;;;;;5050564;28;20464;-77
2024/01/24 08:00:14;;;;;;;10.03;9.83;;;11.10;1.00;;;;;;5051805;28;20484;-78
2024/01/24 08:02:46;;;;;;;10.13;9.80;;;11.10;45.60;;;;;;5044942;28;20475;-81
2024/01/24 08:05:18;;;;;;;10.10;9.70;;;11.10;11.90;;;;;;5050091;28;20496;-80
2024/01/24 08:07:46;;;;;;;9.50;9.30;;;11.10;1.00;;;;;;5042517;28;20450;-79
2024/01/24 08:10:15;;;;;;;10.40;10.10;;;11.10;1.00;;;;;;5052871;28;20494;-77
2024/01/24 08:12:44;;;;;;;10.00;9.70;;;11.20;1.00;;;;;;5054839;28;20462;-78
2024/01/24 08:15:12;;;;;;;9.70;9.50;;;11.20;99.90;;;;;;5052636;28;20541;-78
2024/01/24 08:17:41;;;;;;;9.90;9.60;;;11.20;99.90;;;;;;5044924;28;20492;-78
2024/01/24 08:20:12;;;;;;;9.20;9.00;;;11.20;99.90;;;;;;5053095;28;20487;-79
2024/01/24 08:22:41;;;;;;;9.60;9.40;;;11.20;1.00;;;;;;5048966;28;20553;-79
2024/01/24 08:25:09;;;;;;;9.60;9.40;;;11.20;1.00;;;;;;5054173;28;20470;-81
2024/01/24 08:27:38;;;;;;;11.17;10.87;;;11.30;1.00;;;;;;5052933;28;20458;-77
2024/01/24 08:30:07;;;;;;;10.00;9.70;;;11.30;1.00;;;;;;5052275;28;20538;-80
2024/01/24 08:32:40;;;;;;;9.80;9.67;;;11.30;1.00;;;;;;5055749;28;20440;-79
2024/01/24 08:35:12;;;;;;;9.40;9.30;;;11.30;99.90;;;;;;5057796;28;20466;-80
2024/01/24 08:37:41;;;;;;;9.70;9.60;;;11.30;1.00;;;;;;5062674;28;20455;-80
2024/01/24 08:40:10;;;;;;;9.60;9.37;;;11.30;6.90;;;;;;5056770;28;20467;-78
2024/01/24 08:42:40;;;;;;;9.50;9.30;;;11.30;99.90;;;;;;5052277;28;20530;-78
2024/01/24 08:45:09;;;;;;;9.10;8.90;;;11.30;99.90;;;;;;5052779;28;20544;-81
2024/01/24 08:47:38;;;;;;;9.60;9.50;;;11.40;99.90;;;;;;5061679;28;20473;-77
2024/01/24 08:50:09;;;;;;;9.70;9.50;;;11.40;1.00;;;;;;5054258;28;20557;-75
2024/01/24 08:52:40;;;;;;;9.60;9.40;;;11.50;1.00;;;;;;5058877;28;20443;-76
2024/01/24 08:55:10;;;;;;;9.67;9.33;;;11.50;1.00;;;;;;5055328;28;20455;-78
2024/01/24 08:57:39;;;;;;;9.30;9.20;;;11.50;68.10;;;;;;5061269;28;20443;-75
2024/01/24 09:00:09;;;;;;;10.00;9.90;;;11.50;99.90;;;;;;5057663;28;20477;-81
2024/01/24 09:02:38;;;;;;;9.90;9.80;;;11.50;1.00;;;;;;5060013;28;20531;-78
2024/01/24 09:05:08;;;;;;;10.10;9.90;;;11.60;1.00;;;;;;5056684;28;20497;-77
2024/01/24 09:07:39;;;;;;;10.33;10.13;;;11.60;1.00;;;;;;5059347;28;20439;-76
2024/01/24 09:10:09;;;;;;;10.30;10.10;;;11.60;1.00;;;;;;5058024;28;20477;-78
2024/01/24 09:12:38;;;;;;;10.40;10.20;;;11.60;1.00;;;;;;5060659;28;20986;-76
2024/01/24 09:15:07;;;;;;;10.40;10.10;;;11.60;1.00;;;;;;5059449;28;20457;-77
2024/01/24 09:17:36;;;;;;;10.13;9.93;;;11.60;1.00;;;;;;5058114;28;21083;-78
2024/01/24 09:20:06;;;;;;;10.10;9.90;;;11.70;1.00;;;;;;5055535;28;20471;-77
2024/01/24 09:22:36;;;;;;;10.50;10.30;;;11.70;99.90;;;;;;5060093;28;20576;-79
2024/01/24 09:25:06;;;;;;;10.40;10.20;;;11.60;1.00;;;;;;5056045;28;21089;-77
2024/01/24 09:27:37;;;;;;;10.20;10.10;;;11.60;52.50;;;;;;5055192;28;21197;-78
2024/01/24 09:30:07;;;;;;;10.90;10.70;;;11.60;99.90;;;;;;5056629;28;20471;-77
2024/01/24 09:32:36;;;;;;;10.60;10.37;;;11.60;99.90;;;;;;5058332;28;21041;-75
2024/01/24 09:35:06;;;;;;;12.33;11.93;;;11.60;99.90;;;;;;5059476;28;21076;-76
2024/01/24 09:37:34;;;;;;;10.20;10.00;;;11.60;99.90;;;;;;5056311;28;20456;-79
2024/01/24 09:40:03;;;;;;;10.93;10.73;;;11.60;99.90;;;;;;5052341;28;20496;-78
2024/01/24 09:42:40;;;;;;;10.63;10.20;;;11.50;99.90;;;;;;5054771;28;20484;-75
2024/01/24 09:45:10;;;;;;;10.70;10.40;;;11.50;1.00;;;;;;5053541;28;20448;-81
2024/01/24 09:47:40;;;;;;;10.73;10.47;;;11.60;1.00;;;;;;5054896;28;20460;-78
2024/01/24 09:50:11;;;;;;;11.20;10.90;;;11.70;1.00;;;;;;5054661;28;20518;-78
2024/01/24 09:52:41;;;;;;;11.00;10.60;;;11.80;1.00;;;;;;5050095;28;20807;-76
2024/01/24 09:55:16;;;;;;;11.03;10.83;;;11.80;1.00;;;;;;5048592;28;20454;-78
2024/01/24 09:57:49;;;;;;;11.70;11.50;;;11.90;99.90;;;;;;5056919;28;20968;-78
2024/01/24 10:00:18;;;;;;;11.20;11.00;;;11.80;99.90;;;;;;5051797;28;20995;-78
2024/01/24 10:02:47;;;;;;;11.20;11.00;;;11.90;99.90;;;;;;5057155;28;20514;-77
2024/01/24 10:05:18;;;;;;;11.50;11.30;;;12.00;99.90;;;;;;5054772;28;20456;-78
2024/01/24 10:07:47;;;;;;;11.03;10.83;;;12.10;99.90;;;;;;5056930;28;20585;-79
2024/01/24 10:10:16;;;;;;;12.77;12.37;;;12.20;99.90;;;;;;5056463;28;21040;-75
2024/01/24 10:12:45;;;;;;;11.70;11.40;;;12.30;1.00;;;;;;5056440;28;20901;-78
2024/01/24 10:15:15;;;;;;;11.60;11.40;;;12.20;99.90;;;;;;5058144;28;20471;-77
2024/01/24 10:17:44;;;;;;;11.67;11.47;;;12.10;1.00;;;;;;5058642;28;20976;-78
2024/01/24 10:20:13;;;;;;;12.30;12.00;;;12.30;99.90;;;;;;5057519;28;20523;-77
2024/01/24 10:22:44;;;;;;;12.23;12.00;;;12.60;1.00;;;;;;5057194;28;20591;-76
2024/01/24 10:25:13;;;;;;;12.60;12.40;;;13.00;1.00;;;;;;5051908;28;20728;-76
2024/01/24 10:27:42;;;;;;;12.70;12.50;;;13.60;22.60;;;;;;5056197;28;20466;-78
2024/01/24 10:30:15;;;;;;;14.17;13.53;;;13.90;99.90;;;;;;5053910;28;20854;-76
2024/01/24 10:32:46;;;;;;;12.90;12.60;;;13.60;1.00;;;;;;5048735;28;21190;-78
2024/01/24 10:35:17;;;;;;;12.23;12.03;;;13.30;99.90;;;;;;5051320;28;20472;-77
2024/01/24 10:37:46;;;;;;;12.70;12.50;;;13.50;99.90;;;;;;5055697;28;20455;-78
2024/01/24 10:40:16;;;;;;;12.00;11.70;;;13.40;99.90;;;;;;5051275;28;20515;-77
2024/01/24 10:42:47;;;;;;;12.80;12.40;;;13.20;99.90;;;;;;5056814;28;20478;-79
2024/01/24 10:45:21;;;;;;;12.80;12.60;;;13.20;1.00;;;;;;5050266;28;21040;-80
2024/01/24 10:47:52;;;;;;;12.30;12.10;;;13.20;99.90;;;;;;5053048;28;20544;-77
2024/01/24 10:50:21;;;;;;;14.60;13.93;;;13.10;1.00;;;;;;5049316;28;20500;-81
2024/01/24 10:52:51;;;;;;;13.47;13.10;;;13.20;99.90;;;;;;5054723;28;20448;-75
2024/01/24 10:55:23;;;;;;;12.30;12.10;;;13.00;1.00;;;;;;5055187;28;20455;-78
2024/01/24 10:57:53;;;;;;;12.10;11.90;;;12.90;99.90;;;;;;5054137;28;20527;-78
2024/01/24 11:00:24;;;;;;;14.60;13.80;;;12.80;1.00;;;;;;5056175;28;20474;-78
2024/01/24 11:02:54;;;;;;;15.07;13.87;;;12.70;1.00;;;;;;5056196;28;20476;-77
2024/01/24 11:05:27;;;;;;;11.90;11.60;;;12.60;99.90;;;;;;5055491;28;20494;-77
2024/01/24 11:08:01;;;;;;;11.60;11.40;;;12.50;1.00;;;;;;5056867;28;20463;-79
2024/01/24 11:10:34;;;;;;;12.00;11.80;;;12.50;1.00;;;;;;5055847;28;20459;-77
2024/01/24 11:13:03;;;;;;;11.67;11.47;;;12.40;1.00;;;;;;5060084;28;21103;-77
2024/01/24 11:15:34;;;;;;;11.57;11.37;;;12.40;99.90;;;;;;5054205;28;20464;-76
2024/01/24 11:18:22;;;;;;;11.60;11.40;;;12.40;99.90;;;;;;5053433;28;20457;-75
2024/01/24 11:20:54;;;;;;;11.63;11.27;;;12.30;99.90;;;;;;5051586;28;20494;-78
2024/01/24 11:23:35;;;;;;;12.20;11.80;;;12.30;99.90;;;;;;5049771;28;20471;-77
2024/01/24 11:26:04;;;;;;;14.57;13.87;;;12.30;99.90;;;;;;5043971;28;20861;-80
2024/01/24 11:28:32;;;;;;;13.63;13.23;;;12.40;99.90;;;;;;5047552;28;20517;-76
2024/01/24 11:31:02;;;;;;;13.63;13.10;;;12.50;99.90;;;;;;5051925;28;20495;-79
2024/01/24 11:33:30;;;;;;;12.73;12.43;;;12.50;99.90;;;;;;5046981;28;20467;-77
2024/01/24 11:36:01;;;;;;;13.20;12.90;;;12.50;23.90;;;;;;5044602;28;20464;-79
2024/01/24 11:38:36;;;;;;;13.60;13.30;;;12.60;1.00;;;;;;5047741;28;20479;-78
2024/01/24 11:41:21;;;;;;;13.83;13.33;;;12.60;99.90;;;;;;5049501;28;20877;-79
2024/01/24 11:43:50;;;;;;;13.30;12.90;;;12.60;1.00;;;;;;5049588;28;20484;-75
2024/01/24 11:46:21;;;;;;;12.60;12.40;;;12.60;99.90;;;;;;5045587;28;20450;-81
2024/01/24 11:48:50;;;;;;;12.10;11.90;;;12.60;1.00;;;;;;5051324;28;21079;-80
2024/01/24 11:51:20;;;;;;;12.70;12.50;;;12.60;99.90;;;;;;5047606;28;20550;-78
2024/01/24 11:53:48;;;;;;;12.77;12.57;;;12.60;1.00;;;;;;5053467;28;20471;-82
2024/01/24 11:56:18;;;;;;;13.20;12.90;;;12.60;1.00;;;;;;5048317;28;20551;-77
2024/01/24 11:58:46;;;;;;;12.70;12.40;;;12.60;99.90;;;;;;5055239;28;20483;-77
2024/01/24 12:01:15;;;;;;;13.00;12.50;;;12.70;25.30;;;;;;5044442;28;20597;-82
2024/01/24 12:03:50;;;;;;;12.87;12.57;;;12.70;13.50;;;;;;5052154;28;20521;-78
2024/01/24 12:06:21;;;;;;;12.90;12.60;;;12.70;99.90;;;;;;5045291;28;20593;-77
2024/01/24 12:08:49;;;;;;;12.00;11.80;;;12.70;1.00;;;;;;5051569;28;20900;-75
2024/01/24 12:11:20;;;;;;;12.40;12.20;;;12.60;1.00;;;;;;5044390;28;20961;-76
2024/01/24 12:13:49;;;;;;;12.60;12.17;;;12.70;99.90;;;;;;5049468;28;20483;-78
2024/01/24 12:16:20;;;;;;;12.10;11.80;;;12.60;99.90;;;;;;5055390;28;20560;-76
2024/01/24 12:18:50;;;;;;;12.50;12.13;;;12.60;99.90;;;;;;5059449;28;20474;-78
2024/01/24 12:21:20;;;;;;;11.67;11.47;;;12.50;99.90;;;;;;5055432;28;20600;-79
2024/01/24 12:23:49;;;;;;;12.27;11.97;;;12.50;1.00;;;;;;5055813;28;20490;-79
2024/01/24 12:26:18;;;;;;;11.73;11.53;;;12.50;1.00;;;;;;5055492;28;20532;-77
2024/01/24 12:28:47;;;;;;;11.20;11.00;;;12.50;1.00;;;;;;5053455;28;20478;-80
2024/01/24 12:31:16;;;;;;;11.50;11.30;;;12.40;1.00;;;;;;5047610;28;20551;-81
2024/01/24 12:33:45;;;;;;;11.90;11.60;;;12.40;99.90;;;;;;5052991;28;20467;-77
2024/01/24 12:36:16;;;;;;;11.83;11.53;;;12.40;99.90;;;;;;5056286;28;20529;-81
2024/01/24 12:38:45;;;;;;;12.23;11.83;;;12.40;99.90;;;;;;5047908;28;20561;-80
2024/01/24 12:41:15;;;;;;;11.70;11.43;;;12.40;99.90;;;;;;5057520;28;20447;-79
2024/01/24 12:43:43;;;;;;;11.87;11.60;;;12.50;99.90;;;;;;5059106;28;20467;-79
2024/01/24 12:46:13;;;;;;;11.60;11.40;;;12.50;99.90;;;;;;5054776;28;20479;-79
2024/01/24 12:48:41;;;;;;;11.67;11.27;;;12.50;1.00;;;;;;5058334;28;20533;-78
2024/01/24 12:51:10;;;;;;;11.97;11.30;;;12.50;99.90;;;;;;5048925;28;20458;-77
2024/01/24 12:53:40;;;;;;;12.00;11.60;;;12.50;99.90;;;;;;5060331;28;20550;-78
2024/01/24 12:56:09;;;;;;;12.20;11.80;;;12.50;99.90;;;;;;5054390;28;20485;-78
2024/01/24 12:58:37;;;;;;;11.03;10.73;;;12.50;1.00;;;;;;5049999;28;20490;-80